Map

Track Data

SID SEASON NUMBER BASIN SUBBASIN NAME ISO_TIME NATURE LAT LON WMO_WIND WMO_PRES WMO_AGENCY TRACK_TYPE DIST2LAND LANDFALL IFLAG USA_AGENCY USA_ATCF_ID USA_LAT USA_LON USA_RECORD USA_STATUS USA_WIND USA_PRES USA_SSHS USA_R34_NE USA_R34_SE USA_R34_SW USA_R34_NW USA_R50_NE USA_R50_SE USA_R50_SW USA_R50_NW USA_R64_NE USA_R64_SE USA_R64_SW USA_R64_NW USA_POCI USA_ROCI USA_RMW USA_EYE TOKYO_LAT TOKYO_LON TOKYO_GRADE TOKYO_WIND TOKYO_PRES TOKYO_R50_DIR TOKYO_R50_LONG TOKYO_R50_SHORT TOKYO_R30_DIR TOKYO_R30_LONG TOKYO_R30_SHORT TOKYO_LAND CMA_LAT CMA_LON CMA_CAT CMA_WIND CMA_PRES HKO_LAT HKO_LON HKO_CAT HKO_WIND HKO_PRES NEWDELHI_LAT NEWDELHI_LON NEWDELHI_GRADE NEWDELHI_WIND NEWDELHI_PRES NEWDELHI_CI NEWDELHI_DP NEWDELHI_POCI REUNION_LAT REUNION_LON REUNION_TYPE REUNION_WIND REUNION_PRES REUNION_TNUM REUNION_CI REUNION_RMW REUNION_R34_NE REUNION_R34_SE REUNION_R34_SW REUNION_R34_NW REUNION_R50_NE REUNION_R50_SE REUNION_R50_SW REUNION_R50_NW REUNION_R64_NE REUNION_R64_SE REUNION_R64_SW REUNION_R64_NW BOM_LAT BOM_LON BOM_TYPE BOM_WIND BOM_PRES BOM_TNUM BOM_CI BOM_RMW BOM_R34_NE BOM_R34_SE BOM_R34_SW BOM_R34_NW BOM_R50_NE BOM_R50_SE BOM_R50_SW BOM_R50_NW BOM_R64_NE BOM_R64_SE BOM_R64_SW BOM_R64_NW BOM_ROCI BOM_POCI BOM_EYE BOM_POS_METHOD BOM_PRES_METHOD NADI_LAT NADI_LON NADI_CAT NADI_WIND NADI_PRES WELLINGTON_LAT WELLINGTON_LON WELLINGTON_WIND WELLINGTON_PRES DS824_LAT DS824_LON DS824_STAGE DS824_WIND DS824_PRES TD9636_LAT TD9636_LON TD9636_STAGE TD9636_WIND TD9636_PRES TD9635_LAT TD9635_LON TD9635_WIND TD9635_PRES TD9635_ROCI NEUMANN_LAT NEUMANN_LON NEUMANN_CLASS NEUMANN_WIND NEUMANN_PRES MLC_LAT MLC_LON MLC_CLASS MLC_WIND MLC_PRES USA_GUST BOM_GUST BOM_GUST_PER REUNION_GUST REUNION_GUST_PER USA_SEAHGT USA_SEARAD_NE USA_SEARAD_SE USA_SEARAD_SW USA_SEARAD_NW STORM_SPEED STORM_DIR
1993253N06150 1993 68 WP MM BECKY 1993-09-09 18:00:00 NR 6.00000 150.000 main 952 938 O_____________ jtwc_wp WP221993 6.00000 150.000 15 -1 24 279
1993253N06150 1993 68 WP MM BECKY 1993-09-09 21:00:00 NR 6.18805 148.823 main 943 938 P_____________ WP221993 6.18805 148.823 15 -1 23 280
1993253N06150 1993 68 WP MM BECKY 1993-09-10 00:00:00 NR 6.40000 147.700 main 953 952 O_____________ jtwc_wp WP221993 6.40000 147.700 15 -1 22 282
1993253N06150 1993 68 WP MM BECKY 1993-09-10 03:00:00 NR 6.64983 146.683 main 974 974 P_____________ WP221993 6.64983 146.683 15 -1 20 285
1993253N06150 1993 68 WP MM BECKY 1993-09-10 06:00:00 NR 6.90000 145.800 main 1012 1012 O_____________ jtwc_wp WP221993 6.90000 145.800 15 -1 17 286
1993253N06150 1993 68 WP MM BECKY 1993-09-10 09:00:00 NR 7.09970 145.062 main 1044 1044 P_____________ WP221993 7.09970 145.062 15 -1 14 286
1993253N06150 1993 68 WP MM BECKY 1993-09-10 12:00:00 NR 7.30000 144.400 main 1081 1081 O_____________ jtwc_wp WP221993 7.30000 144.400 15 -1 14 289
1993253N06150 1993 68 WP MM BECKY 1993-09-10 15:00:00 NR 7.55746 143.685 main 1133 1133 P_____________ WP221993 7.55746 143.685 15 -1 15 290
1993253N06150 1993 68 WP MM BECKY 1993-09-10 18:00:00 NR 7.80000 143.000 main 1176 1165 O_____________ jtwc_wp WP221993 7.80000 143.000 15 -1 14 288
1993253N06150 1993 68 WP MM BECKY 1993-09-10 21:00:00 NR 7.97237 142.377 main 1172 1158 P_____________ WP221993 7.97238 142.377 15 -1 12 284
1993253N06150 1993 68 WP MM BECKY 1993-09-11 00:00:00 NR 8.10000 141.800 main 1158 1147 O_____________ jtwc_wp WP221993 8.10000 141.800 15 -1 12 281
1993253N06150 1993 68 WP MM BECKY 1993-09-11 03:00:00 NR 8.20000 141.212 main 1147 1138 P_____________ WP221993 8.20000 141.212 15 -1 11 280
1993253N06150 1993 68 WP MM BECKY 1993-09-11 06:00:00 NR 8.30000 140.700 main 1143 1138 O_____________ jtwc_wp WP221993 8.30000 140.700 15 -1 9 285
1993253N06150 1993 68 WP MM BECKY 1993-09-11 09:00:00 NR 8.43483 140.335 main 1140 1140 P_____________ WP221993 8.43483 140.335 15 -1 8 293
1993253N06150 1993 68 WP MM BECKY 1993-09-11 12:00:00 NR 8.60000 140.000 main 1147 1142 O_____________ jtwc_wp WP221993 8.60000 140.000 15 -1 8 296
1993253N06150 1993 68 WP MM BECKY 1993-09-11 15:00:00 NR 8.80000 139.565 main 1151 1146 P_____________ WP221993 8.80000 139.565 15 -1 10 294
1993253N06150 1993 68 WP MM BECKY 1993-09-11 18:00:00 NR 9.00000 139.100 main 1154 1150 O_____________ jtwc_wp WP221993 9.00000 139.100 15 -1 10 291
1993253N06150 1993 68 WP MM BECKY 1993-09-11 21:00:00 NR 9.14242 138.657 main 1150 1150 P_____________ WP221993 9.14242 138.657 15 -1 9 289
1993253N06150 1993 68 WP MM BECKY 1993-09-12 00:00:00 NR 9.30000 138.200 main 1156 1154 O_____________ jtwc_wp WP221993 9.30000 138.200 15 -1 10 293
1993253N06150 1993 68 WP MM BECKY 1993-09-12 03:00:00 NR 9.51982 137.737 main 1166 1166 P_____________ WP221993 9.51982 137.737 15 -1 11 297
1993253N06150 1993 68 WP MM BECKY 1993-09-12 06:00:00 NR 9.80000 137.200 main 1189 1131 O_____________ jtwc_wp WP221993 9.80000 137.200 15 -1 14 297
1993253N06150 1993 68 WP MM BECKY 1993-09-12 09:00:00 NR 10.1351 136.515 main 1121 1058 P_____________ WP221993 10.1351 136.515 15 -1 16 297
1993253N06150 1993 68 WP MM BECKY 1993-09-12 12:00:00 NR 10.5000 135.800 main 1058 1001 O_____________ jtwc_wp WP221993 10.5000 135.800 15 -1 15 299
1993253N06150 1993 68 WP MM BECKY 1993-09-12 15:00:00 NR 10.8572 135.192 main 1003 946 P_____________ WP221993 10.8572 135.192 17 -1 14 301
1993253N06150 1993 68 WP MM BECKY 1993-09-12 18:00:00 NR 11.2000 134.600 main 946 891 O_____________ jtwc_wp WP221993 11.2000 134.600 20 -1 14 298
1993253N06150 1993 68 WP MM BECKY 1993-09-12 21:00:00 NR 11.5074 133.957 main 891 822 P_____________ WP221993 11.5074 133.957 20 -1 14 295
1993253N06150 1993 68 WP MM BECKY 1993-09-13 00:00:00 NR 11.8000 133.300 main 822 760 O_____________ jtwc_wp WP221993 11.8000 133.300 20 -1 14 294
1993253N06150 1993 68 WP MM BECKY 1993-09-13 03:00:00 NR 12.0698 132.657 main 762 662 P_____________ WP221993 12.0698 132.657 20 -1 21 301
1993253N06150 1993 68 WP MM BECKY 1993-09-13 06:00:00 TS 12.8500 131.500 1006 tokyo main 655 588 OOO___________ jtwc_wp WP221993 12.4000 132.000 20 -1 14.0000 130.500 2 1006 0 0 0 13.5000 130.500 1 23 1005 22 305
1993253N06150 1993 68 WP MM BECKY 1993-09-13 09:00:00 TS 13.3425 130.764 main 588 536 PPP___________ WP221993 12.8774 131.300 20 -1 13.9799 130.300 2 1006 0 0 13.6351 130.155 1 23 1005 15 303
1993253N06150 1993 68 WP MM BECKY 1993-09-13 12:00:00 TS 13.7000 130.180 1006 tokyo main 536 493 OOO___________ jtwc_wp WP221993 13.4000 130.600 20 -1 14.0000 130.000 2 1006 0 0 0 13.8000 129.800 1 23 1005 13 301
1993253N06150 1993 68 WP MM BECKY 1993-09-13 15:00:00 TS 13.9941 129.627 main 487 455 PPP___________ WP221993 13.8649 129.920 20 -1 14.0976 129.537 2 1005 0 0 14.0199 129.422 1 23 1005 12 300
1993253N06150 1993 68 WP MM BECKY 1993-09-13 18:00:00 TS 14.3000 129.100 1004 tokyo main 455 429 OOO___________ jtwc_wp WP221993 14.3000 129.300 20 -1 14.3000 129.000 2 1004 0 0 0 14.3000 129.000 1 23 1005 12 304
1993253N06150 1993 68 WP MM BECKY 1993-09-13 21:00:00 TS 14.6616 128.588 main 436 417 PPP___________ WP221993 14.6997 128.777 22 -1 14.6350 128.485 2 1004 0 0 14.6501 128.500 1 26 1003 12 307
1993253N06150 1993 68 WP MM BECKY 1993-09-14 00:00:00 TS 15.0333 128.100 1004 tokyo main 417 388 OOO___________ jtwc_wp WP221993 15.1000 128.300 25 -1 15.0000 128.000 2 1004 0 0 0 15.0000 128.000 1 29 1002 11 307
1993253N06150 1993 68 WP MM BECKY 1993-09-14 03:00:00 TS 15.3524 127.654 main 392 365 PPP___________ WP221993 15.5574 127.793 25 -1 15.2498 127.585 2 1004 0 0 15.2498 127.585 1 29 1002 11 307
1993253N06150 1993 68 WP MM BECKY 1993-09-14 06:00:00 TS 15.6667 127.233 1004 tokyo main 362 348 OOO___________ jtwc_wp WP221993 16.0000 127.300 25 -1 15.5000 127.200 2 1004 0 0 0 15.5000 127.200 1 29 1002 11 309
1993253N06150 1993 68 WP MM BECKY 1993-09-14 09:00:00 TS 16.0266 126.804 main 348 341 PPP___________ WP221993 16.3649 126.842 25 -1 15.8575 126.785 2 1004 0 0 15.8575 126.785 1 29 1002 11 311
1993253N06150 1993 68 WP MM BECKY 1993-09-14 12:00:00 TS 16.3667 126.400 1004 tokyo main 350 343 OOO___________ jtwc_wp WP221993 16.7000 126.400 25 -1 16.2000 126.400 2 1004 0 0 0 16.2000 126.400 1 29 1002 9 311
1993253N06150 1993 68 WP MM BECKY 1993-09-14 15:00:00 TS 16.6263 126.077 main 349 340 PPP___________ WP221993 17.0648 125.957 25 -1 16.4146 126.137 2 1004 0 0 16.3996 126.137 1 29 1002 8 307
1993253N06150 1993 68 WP MM BECKY 1993-09-14 18:00:00 TS 16.8667 125.700 1004 tokyo main 340 287 OOO___________ jtwc_wp WP221993 17.4000 125.500 25 -1 16.6000 125.800 2 1004 0 0 0 16.6000 125.800 1 29 1002 11 299
1993253N06150 1993 68 WP MM BECKY 1993-09-14 21:00:00 TS 17.1427 125.123 main 276 217 PPP___________ WP221993 17.6723 125.022 27 -1 16.8205 125.173 2 1004 0 0 16.9355 125.173 1 29 1001 13 296
1993253N06150 1993 68 WP MM BECKY 1993-09-15 00:00:00 TS 17.4333 124.500 1004 tokyo main 217 175 OOO___________ jtwc_wp WP221993 17.9000 124.500 30 -1 17.1000 124.500 2 1004 0 0 0 17.3000 124.500 1 29 1000 12 298
1993253N06150 1993 68 WP MM BECKY 1993-09-15 03:00:00 TS 17.7332 123.975 main 175 128 PPP___________ WP221993 18.1225 123.908 32 -1 17.4848 123.998 2 1004 0 0 17.5922 124.020 1 29 1000 12 304
1993253N06150 1993 68 WP MM BECKY 1993-09-15 06:00:00 TS 18.1000 123.477 1004 tokyo main 128 73 OOOO__________ jtwc_wp WP221993 18.3000 123.300 35 0 17.9000 123.600 2 1004 0 0 0 17.9000 123.600 1 29 1000 18.9000 123.200 TD 25 1000 12 307
1993253N06150 1993 68 WP MM BECKY 1993-09-15 09:00:00 TS 18.4316 123.015 main 73 38 PPPP__________ WP221993 18.4072 122.750 37 0 18.2872 123.307 2 1002 0 0 18.3297 123.173 1 33 997 18.9729 122.648 TD 27 1000 11 303
1993253N06150 1993 68 WP MM BECKY 1993-09-15 12:00:00 TS 18.6800 122.527 35 1000 tokyo main 39 35 OOOO__________ jtwc_wp WP221993 18.5000 122.200 40 0 18.6000 123.000 3 35 1000 0 9 50 50 0 18.7000 122.700 2 38 995 19.0000 122.100 TD 30 1000 11 292
1993253N06150 1993 68 WP MM BECKY 1993-09-15 15:00:00 TS 18.8246 121.981 main 45 44 PPPP__________ WP221993 18.6573 121.615 42 0 18.8167 122.605 3 35 999 0 9 50 50 18.8673 122.145 2 38 995 18.9573 121.557 TD 30 1000 11 280
1993253N06150 1993 68 WP MM BECKY 1993-09-15 18:00:00 TS 18.8750 121.375 35 998 tokyo main 44 22 OOOO__________ jtwc_wp WP221993 18.8000 121.000 45 0 18.9000 122.000 3 35 998 0 9 50 50 0 18.9000 121.500 2 38 995 18.9000 121.000 TD 30 1000 13 270
1993253N06150 1993 68 WP MM BECKY 1993-09-15 21:00:00 TS 18.8219 120.654 main 24 24 PPPP__________ WP221993 18.8348 120.364 47 0 18.7860 121.036 3 37 995 0 9 85 85 18.8274 120.779 2 38 992 18.8396 120.437 TD 35 997 14 268
1993253N06150 1993 68 WP MM BECKY 1993-09-16 00:00:00 TS 18.8250 119.875 40 992 tokyo main 86 86 OOOO__________ jtwc_wp WP221993 18.9000 119.700 50 0 18.7000 120.000 3 40 992 0 9 120 120 0 18.8000 120.000 2 38 990 18.9000 119.800 TS 40 995 15 278
1993253N06150 1993 68 WP MM BECKY 1993-09-16 03:00:00 TS 19.0359 119.118 main 171 171 PPPP__________ WP221993 19.1048 119.007 52 0 18.8514 119.235 3 45 988 0 9 135 135 18.9898 119.208 2 43 987 19.1976 119.023 TS 42 990 15 291
1993253N06150 1993 68 WP MM BECKY 1993-09-16 06:00:00 TS 19.3750 118.350 50 985 tokyo main 257 257 OOOO__________ jtwc_wp WP221993 19.4000 118.300 55 0 19.2000 118.500 4 50 985 0 9 150 150 0 19.3000 118.400 3 48 985 19.6000 118.200 TS 45 985 16 297
1993253N06150 1993 68 WP MM BECKY 1993-09-16 09:00:00 TS 19.7652 117.576 main 351 298 PPPP__________ WP221993 19.7346 117.615 57 0 19.7424 117.623 4 50 985 0 9 150 150 19.6269 117.615 3 48 985 19.9570 117.450 TS 45 985 17 298
1993253N06150 1993 68 WP MM BECKY 1993-09-16 12:00:00 TS 20.1750 116.775 50 985 tokyo main 298 246 OOOO__________ jtwc_wp WP221993 20.1000 116.900 60 0 20.3000 116.700 4 50 985 0 9 150 150 0 20.0000 116.800 3 48 985 20.3000 116.700 TS 45 985 17 296
1993253N06150 1993 68 WP MM BECKY 1993-09-16 15:00:00 TS 20.5162 115.913 main 246 187 PPPP__________ WP221993 20.4498 116.115 62 0 20.6226 115.754 4 52 982 0 9 150 150 20.3852 115.885 3 53 982 20.6073 115.900 TS 52 982 17 293
1993253N06150 1993 68 WP MM BECKY 1993-09-16 18:00:00 TS 20.8500 115.075 55 980 tokyo main 177 123 OOOO__________ jtwc_wp WP221993 20.8000 115.300 65 1 20.9000 114.900 4 55 980 9 40 40 9 150 150 0 20.8000 115.000 3 58 980 20.9000 115.100 STS 60 980 16 296
1993253N06150 1993 68 WP MM BECKY 1993-09-16 21:00:00 TS 21.2260 114.368 main 123 69 PPPP__________ WP221993 21.1572 114.492 62 0 21.2985 114.314 4 55 980 9 40 40 9 150 120 21.2638 114.307 3 63 977 21.1844 114.357 STS 60 980 15 299
1993253N06150 1993 68 WP MM BECKY 1993-09-17 00:00:00 TS 21.6000 113.650 55 980 tokyo main 69 0 OOOO__________ jtwc_wp WP221993 21.5000 113.700 60 0 21.7000 113.700 4 55 980 9 40 40 3 150 90 0 21.7000 113.600 4 68 975 21.5000 113.600 STS 60 980 17 296
1993253N06150 1993 68 WP MM BECKY 1993-09-17 03:00:00 TS 21.9555 112.752 main 0 0 PPPP__________ WP221993 21.8071 112.942 57 0 22.0388 112.700 4 52 982 9 3 135 90 22.0535 112.620 4 58 980 21.9226 112.743 STS 52 982 18 291
1993253N06150 1993 68 WP MM BECKY 1993-09-17 06:00:00 TS 22.2467 111.873 50 985 tokyo main 0 0 OOOO__________ jtwc_wp WP221993 22.1000 112.200 55 0 22.3000 111.700 4 50 985 0 3 120 90 0 22.3000 111.700 3 48 985 22.3000 111.900 TS 45 985 15 289
1993253N06150 1993 68 WP MM BECKY 1993-09-17 09:00:00 TS 22.4522 111.203 main 0 0 PPPP__________ WP221993 22.4074 111.435 52 0 22.4791 111.024 4 45 988 0 3 105 90 22.4436 111.169 3 38 990 22.5052 111.165 TS 35 990 12 287
1993253N06150 1993 68 WP MM BECKY 1993-09-17 12:00:00 TS 22.6000 110.623 40 992 tokyo main 0 0 OOOO__________ jtwc_wp WP221993 22.7000 110.700 50 0 22.6000 110.500 3 40 992 0 9 90 90 0 22.5000 110.700 1 29 995 22.6000 110.500 TD 25 995 11 284
1993253N06150 1993 68 WP MM BECKY 1993-09-17 15:00:00 TS 22.7265 110.002 main 0 0 PPP___________ WP221993 22.9647 110.020 45 0 22.7068 110.022 3 37 994 0 9 75 75 22.5079 109.965 1 26 998 TD 12 281
1993253N06150 1993 68 WP MM BECKY 1993-09-17 18:00:00 TS 22.8333 109.367 35 996 tokyo main 0 0 OOO___________ jtwc_wp WP221993 23.2000 109.400 40 0 22.8000 109.500 3 35 996 0 9 60 60 0 22.5000 109.200 1 23 1002 12 281
1993253N06150 1993 68 WP MM BECKY 1993-09-17 21:00:00 TS 22.9649 108.721 main 0 0 PPP___________ WP221993 23.4146 108.835 32 -1 22.9156 108.750 3 999 0 9 22.5645 108.578 1 23 1002 12 283
1993253N06150 1993 68 WP MM BECKY 1993-09-18 00:00:00 TS 23.1091 108.109 1002 tokyo main 0 0 OOO___________ jtwc_wp WP221993 23.6000 108.300 25 -1 23.0000 108.000 2 1002 0 0 0 22.6000 108.000 1 23 1002 11 284
1993253N06150 1993 68 WP MM BECKY 1993-09-18 03:00:00 TS 23.2244 107.560 main 0 0 PPP___________ WP221993 23.7650 107.735 22 -1 23.0294 107.462 2 1003 0 0 22.5331 107.407 1 20 1003 10 283
1993253N06150 1993 68 WP MM BECKY 1993-09-18 06:00:00 TS 23.3333 107.067 1004 tokyo main 0 0 OOO___________ jtwc_wp WP221993 23.9000 107.200 20 -1 23.0000 107.000 2 1004 0 0 0 22.4000 106.800 0 17 1004 9 285
1993253N06150 1993 68 WP MM BECKY 1993-09-18 09:00:00 TS 23.4610 106.621 main 0 0 PP____________ WP221993 24.0147 106.742 20 -1 22.9073 106.500 2 1004 0 0 0 8 278
1993253N06150 1993 68 WP MM BECKY 1993-09-18 12:00:00 TS 23.4500 106.150 1004 tokyo main 0 0 OO____________ jtwc_wp WP221993 24.1000 106.300 20 -1 22.8000 106.000 2 1004 0 0 0 9 269
1993253N06150 1993 68 WP MM BECKY 1993-09-18 15:00:00 TS 23.4466 105.658 main 0 0 PP____________ WP221993 24.1580 105.815 20 -1 22.7353 105.500 2 1005 0 0 9 270
1993253N06150 1993 68 WP MM BECKY 1993-09-18 18:00:00 TS 23.4500 105.150 1006 tokyo main 0 OO____________ jtwc_wp WP221993 24.2000 105.300 20 -1 22.7000 105.000 2 1006 0 0 0 9 270

Digital Typhoon Data and Search

About IBTrACS Database

This database is a web-friendly format of International Best Track Archive for Climate Stewardship (IBTrACS), a global best track data archive curated by NOAA dating back to 1842.

Updated: 2021-12-06